Time;durP1;ratioP1;P1;durP2;ratioP2;P2;SDS_P1;SDS_P2;PMS_P1;PMS_P2;Temp;Humidity;BMP_temperature;BMP_pressure;BME280_temperature;BME280_humidity;BME280_pressure;Samples;Min_cycle;Max_cycle;Signal;HPM_P1;HPM_P2
2022/02/07 00:00:05;;;;;;;19.17;3.85;;;;;;;10.27;100.00;100609.44;5012094;28;20065;-46
2022/02/07 00:02:51;;;;;;;20.13;2.83;;;;;;;10.36;100.00;100620.78;5012567;28;20025;-49
2022/02/07 00:05:22;;;;;;;21.58;3.63;;;;;;;10.44;100.00;100620.66;5022441;28;20061;-49
2022/02/07 00:07:48;;;;;;;21.52;3.15;;;;;;;9.92;100.00;100637.00;5022455;28;20030;-48
2022/02/07 00:10:13;;;;;;;19.03;3.43;;;;;;;10.45;100.00;100633.81;5029439;28;20497;-45
2022/02/07 00:12:41;;;;;;;24.20;2.97;;;;;;;9.99;100.00;100643.22;5014320;28;20065;-46
2022/02/07 00:15:09;;;;;;;23.40;4.63;;;;;;;10.22;100.00;100651.97;5020154;28;20112;-46
2022/02/07 00:17:35;;;;;;;18.20;3.58;;;;;;;10.27;100.00;100655.72;5023526;28;20038;-45
2022/02/07 00:20:07;;;;;;;29.50;3.10;;;;;;;10.22;100.00;100668.03;5028075;28;20427;-47
2022/02/07 00:22:32;;;;;;;22.38;3.08;;;;;;;10.29;100.00;100666.19;5017468;28;20045;-47
2022/02/07 00:24:58;;;;;;;24.43;4.60;;;;;;;9.95;100.00;100668.66;5028622;28;20049;-47
2022/02/07 00:27:23;;;;;;;21.13;4.00;;;;;;;10.22;100.00;100684.06;5022720;28;20045;-47
2022/02/07 00:29:48;;;;;;;20.00;3.60;;;;;;;10.12;100.00;100697.75;5021650;28;20033;-46
2022/02/07 00:32:14;;;;;;;25.90;2.60;;;;;;;10.09;100.00;100696.31;5029214;28;20112;-45
2022/02/07 00:34:39;;;;;;;9.80;2.43;;;;;;;9.91;100.00;100720.84;5014392;28;20079;-46
2022/02/07 00:37:05;;;;;;;18.97;3.33;;;;;;;9.78;100.00;100723.41;5013706;28;20046;-47
2022/02/07 00:39:38;;;;;;;13.67;2.53;;;;;;;9.85;100.00;100737.66;5023078;28;20037;-46
2022/02/07 00:42:06;;;;;;;25.60;3.53;;;;;;;9.97;100.00;100746.78;5002799;28;20334;-47
2022/02/07 00:44:33;;;;;;;19.88;3.05;;;;;;;10.35;100.00;100750.94;5012065;28;20069;-49
2022/02/07 00:47:01;;;;;;;11.87;1.90;;;;;;;10.25;100.00;100763.84;5012603;28;20096;-49
2022/02/07 00:49:27;;;;;;;14.00;2.78;;;;;;;10.53;100.00;100761.19;5012603;28;20049;-47
2022/02/07 00:51:54;;;;;;;11.35;2.08;;;;;;;9.75;100.00;100802.88;4994812;28;20084;-44
2022/02/07 00:54:19;;;;;;;15.52;2.47;;;;;;;9.49;100.00;100851.50;5012301;28;20490;-47
2022/02/07 00:56:47;;;;;;;6.78;1.50;;;;;;;9.57;100.00;100830.03;4994611;28;20061;-50
2022/02/07 00:59:13;;;;;;;3.10;0.77;;;;;;;9.15;100.00;100843.09;4994342;28;20025;-44
2022/02/07 01:01:38;;;;;;;2.73;1.37;;;;;;;9.44;100.00;100840.53;4994438;28;20034;-43
2022/02/07 01:04:04;;;;;;;8.20;1.77;;;;;;;9.74;100.00;100833.28;5018993;28;20077;-44
2022/02/07 01:06:38;;;;;;;3.55;0.98;;;;;;;9.43;100.00;100830.88;4993547;28;20049;-47
2022/02/07 01:09:23;;;;;;;3.63;0.82;;;;;;;9.65;100.00;100849.59;4989184;28;20092;-45
2022/02/07 01:12:19;;;;;;;5.20;0.85;;;;;;;9.57;100.00;100847.88;5009091;28;20285;-44
2022/02/07 01:18:42;;;;;;;2.55;0.85;;;;;;;9.66;100.00;100865.47;4975172;28;20134;-44
2022/02/07 01:56:52;;;;;;;12.50;1.65;;;;;;;9.17;100.00;101019.00;4995344;28;20030;-46
2022/02/07 01:59:20;;;;;;;12.73;1.80;;;;;;;9.35;100.00;101028.50;4995064;28;20037;-45
2022/02/07 02:01:45;;;;;;;14.82;1.90;;;;;;;9.14;100.00;101040.72;5005618;28;20500;-46
2022/02/07 02:04:11;;;;;;;12.87;1.97;;;;;;;9.41;100.00;101057.13;4999082;28;20057;-44
2022/02/07 02:06:37;;;;;;;8.50;1.75;;;;;;;9.18;100.00;101058.88;5010500;28;20041;-46
2022/02/07 02:09:28;;;;;;;14.77;3.33;;;;;;;9.14;100.00;101062.91;5019732;28;20053;-46
2022/02/07 02:11:55;;;;;;;18.88;2.63;;;;;;;9.06;100.00;101076.31;5019410;28;20065;-47
2022/02/07 02:14:50;;;;;;;18.48;2.65;;;;;;;9.46;100.00;101078.81;5010663;28;20036;-45
2022/02/07 02:32:32;;;;;;;19.95;2.63;;;;;;;10.14;100.00;101100.06;5010776;28;20596;-44
2022/02/07 02:46:45;;;;;;;23.88;4.35;;;;;;;9.60;100.00;101167.94;5015551;28;20049;-43
2022/02/07 02:49:12;;;;;;;16.35;2.70;;;;;;;9.38;100.00;101175.81;5008017;28;20053;-47
2022/02/07 02:51:37;;;;;;;16.40;2.60;;;;;;;9.60;100.00;101186.63;5022111;28;20402;-46
2022/02/07 02:54:05;;;;;;;20.00;4.50;;;;;;;9.88;100.00;101196.72;5018293;28;20041;-45
2022/02/07 02:56:35;;;;;;;18.20;2.78;;;;;;;9.79;100.00;101203.13;5010406;28;20037;-44
2022/02/07 02:59:03;;;;;;;25.73;4.38;;;;;;;9.76;100.00;101199.00;4999036;28;20065;-46
2022/02/07 03:01:33;;;;;;;17.00;4.35;;;;;;;9.51;100.00;101206.38;5005119;28;20125;-44
2022/02/07 03:04:03;;;;;;;31.48;3.20;;;;;;;9.70;100.00;101205.91;5007545;28;20041;-47
2022/02/07 03:06:29;;;;;;;15.85;4.32;;;;;;;9.58;100.00;101220.72;4980414;28;20051;-43
2022/02/07 03:08:54;;;;;;;14.57;2.88;;;;;;;9.42;100.00;101219.81;4958869;28;20038;-43
2022/02/07 03:11:23;;;;;;;10.77;1.90;;;;;;;9.78;100.00;101223.69;4992673;28;20042;-46
2022/02/07 03:13:54;;;;;;;19.48;3.85;;;;;;;9.63;100.00;101239.69;4992504;28;20519;-46
2022/02/07 03:16:39;;;;;;;23.05;3.40;;;;;;;9.64;100.00;101216.47;4974570;28;20069;-47
2022/02/07 03:19:10;;;;;;;22.00;3.40;;;;;;;10.23;100.00;101252.34;4974791;28;20034;-48
2022/02/07 03:21:36;;;;;;;21.95;2.83;;;;;;;10.13;100.00;101252.59;4992596;28;20047;-46
2022/02/07 03:24:03;;;;;;;16.17;2.33;;;;;;;10.30;100.00;101263.94;4992675;28;20042;-46
2022/02/07 03:26:44;;;;;;;25.17;3.20;;;;;;;9.95;100.00;101268.97;4977448;28;20275;-46
2022/02/07 03:29:15;;;;;;;33.13;4.68;;;;;;;10.39;100.00;101273.56;4987507;28;20034;-43
2022/02/07 03:31:45;;;;;;;28.38;4.82;;;;;;;10.18;100.00;101291.13;4974624;28;20030;-46
2022/02/07 03:34:17;;;;;;;12.75;2.20;;;;;;;10.10;100.00;101285.84;4974779;28;20038;-46
2022/02/07 03:36:45;;;;;;;18.50;3.38;;;;;;;10.44;100.00;101303.28;4991829;28;20113;-47
2022/02/07 03:39:13;;;;;;;29.15;5.18;;;;;;;9.98;100.00;101312.19;4974388;28;20038;-50
2022/02/07 03:41:39;;;;;;;27.10;4.32;;;;;;;9.87;100.00;101308.09;4974372;28;20038;-45
2022/02/07 03:44:06;;;;;;;24.58;3.28;;;;;;;9.90;100.00;101325.63;4975609;28;20041;-51
2022/02/07 03:46:33;;;;;;;26.08;4.03;;;;;;;9.85;100.00;101330.66;4977867;28;20026;-45
2022/02/07 03:48:59;;;;;;;15.85;2.90;;;;;;;9.97;100.00;101331.88;4978168;28;20038;-48
2022/02/07 03:51:25;;;;;;;18.05;3.13;;;;;;;9.83;100.00;101344.19;4977876;28;20403;-48
2022/02/07 03:53:50;;;;;;;22.92;3.50;;;;;;;10.28;100.00;101351.53;4978066;28;20030;-48
2022/02/07 03:56:16;;;;;;;21.73;3.57;;;;;;;10.79;100.00;101358.06;4978074;28;20409;-51
2022/02/07 03:58:44;;;;;;;27.65;5.70;;;;;;;10.68;100.00;101362.03;4978735;28;20030;-47
2022/02/07 04:01:11;;;;;;;;;;;;;;;10.36;100.00;101375.50;4978238;28;20052;-48
2022/02/07 04:03:46;;;;;;;19.58;3.47;;;;;;;10.54;100.00;101383.25;4978375;28;19917;-47
2022/02/07 04:06:15;;;;;;;19.23;4.15;;;;;;;10.57;100.00;101388.22;5006773;28;20062;-46
2022/02/07 04:08:45;;;;;;;21.35;3.78;;;;;;;10.47;100.00;101391.16;4997224;28;20038;-49
2022/02/07 04:11:33;;;;;;;23.30;3.05;;;;;;;10.53;100.00;101397.63;4997055;28;20498;-46
2022/02/07 04:13:59;;;;;;;25.35;2.95;;;;;;;10.29;100.00;101409.31;4996962;28;20041;-48
2022/02/07 04:16:28;;;;;;;29.15;3.95;;;;;;;10.31;100.00;101409.97;5014649;28;20037;-50
2022/02/07 04:19:06;;;;;;;23.85;2.60;;;;;;;10.95;100.00;101424.78;4966468;28;20052;-46
2022/02/07 04:21:38;;;;;;;30.08;3.53;;;;;;;11.01;100.00;101425.91;4997229;28;20113;-47
2022/02/07 04:24:05;;;;;;;24.50;3.20;;;;;;;10.98;100.00;101437.81;4996930;28;20042;-49
2022/02/07 04:26:34;;;;;;;20.50;2.78;;;;;;;11.04;100.00;101447.78;4980833;28;20375;-52
2022/02/07 04:29:00;;;;;;;;;;;;;;;10.56;100.00;101461.44;5013437;28;20033;-47
2022/02/07 04:31:28;;;;;;;23.35;4.10;;;;;;;11.21;100.00;101466.34;4996693;28;20000;-44
2022/02/07 04:33:55;;;;;;;18.07;3.50;;;;;;;11.14;100.00;101470.78;4996639;28;20120;-45
2022/02/07 04:36:23;;;;;;;17.77;3.30;;;;;;;11.10;100.00;101480.19;4996588;28;20125;-45
2022/02/07 04:38:48;;;;;;;25.77;8.07;;;;;;;10.67;100.00;101489.63;5014010;28;20069;-46
2022/02/07 04:41:15;;;;;;;19.35;3.00;;;;;;;10.58;100.00;101501.38;4996477;28;20038;-46
2022/02/07 04:43:49;;;;;;;14.47;2.97;;;;;;;10.93;100.00;101509.78;5013751;28;20030;-45
2022/02/07 04:46:40;;;;;;;20.45;3.95;;;;;;;10.52;100.00;101510.13;4996120;28;20296;-47
2022/02/07 04:49:44;;;;;;;12.02;2.60;;;;;;;10.01;100.00;101527.44;4967414;28;20061;-46
2022/02/07 04:52:39;;;;;;;23.25;3.67;;;;;;;10.11;100.00;101530.72;4996293;28;20060;-46
2022/02/07 05:00:22;;;;;;;15.20;2.75;;;;;;;10.83;100.00;101560.03;4996098;28;20044;-49
2022/02/07 05:03:18;;;;;;;21.73;2.88;;;;;;;10.76;100.00;101566.09;4964335;28;20037;-45
2022/02/07 05:16:25;;;;;;;21.80;2.67;;;;;;;10.93;100.00;101590.06;4996536;28;20034;-43
2022/02/07 05:19:02;;;;;;;28.98;2.90;;;;;;;10.72;100.00;101602.25;4964982;28;20030;-46
2022/02/07 05:21:41;;;;;;;23.52;3.97;;;;;;;10.75;100.00;101603.75;4986204;28;20030;-45
2022/02/07 05:24:20;;;;;;;24.52;4.57;;;;;;;10.63;100.00;101608.69;4991091;28;20033;-44
2022/02/07 05:27:09;;;;;;;19.75;2.97;;;;;;;10.94;100.00;101610.47;4981318;28;20104;-46
2022/02/07 05:29:41;;;;;;;27.35;3.55;;;;;;;10.36;100.00;101626.81;4995169;28;20040;-44
2022/02/07 05:32:17;;;;;;;21.95;3.33;;;;;;;10.73;100.00;101628.00;4995410;28;20026;-45
2022/02/07 05:34:55;;;;;;;24.02;3.50;;;;;;;10.51;100.00;101635.00;4995198;28;20116;-48
2022/02/07 05:37:33;;;;;;;22.55;4.35;;;;;;;10.31;100.00;101639.88;4995094;28;20402;-45
2022/02/07 05:40:39;;;;;;;22.85;3.00;;;;;;;10.58;100.00;101641.31;4995880;28;20041;-46
2022/02/07 05:43:41;;;;;;;20.80;3.28;;;;;;;10.39;100.00;101658.59;4965281;28;20049;-44
2022/02/07 05:46:34;;;;;;;20.85;3.08;;;;;;;10.50;100.00;101659.22;5009282;28;20026;-47
2022/02/07 05:49:32;;;;;;;27.13;3.70;;;;;;;10.23;100.00;101664.00;4948259;28;20091;-46
2022/02/07 05:52:30;;;;;;;31.55;6.05;;;;;;;10.17;100.00;101670.84;4963608;28;20057;-47
2022/02/07 05:55:03;;;;;;;21.45;3.05;;;;;;;10.45;100.00;101671.28;4964332;28;20128;-45
2022/02/07 05:57:49;;;;;;;22.85;3.55;;;;;;;10.35;100.00;101681.31;5011906;28;20038;-45
2022/02/07 06:00:25;;;;;;;21.80;3.95;;;;;;;9.80;100.00;101686.47;4994530;28;20087;-45
2022/02/07 06:02:51;;;;;;;32.92;4.70;;;;;;;10.31;100.00;101694.22;5012445;28;20050;-45
2022/02/07 06:05:28;;;;;;;23.17;4.10;;;;;;;10.24;100.00;101695.06;4994416;28;20430;-48
2022/02/07 06:07:59;;;;;;;28.52;3.53;;;;;;;10.41;100.00;101710.09;4982527;28;20247;-44
2022/02/07 06:10:25;;;;;;;24.85;4.82;;;;;;;10.13;100.00;101713.13;4990026;28;20057;-47
2022/02/07 06:12:51;;;;;;;21.02;3.38;;;;;;;10.75;100.00;101716.13;4978549;28;20402;-44
2022/02/07 06:15:18;;;;;;;;;;;;;;;10.42;100.00;101714.44;4989146;28;20022;-47
2022/02/07 06:17:47;;;;;;;22.95;4.15;;;;;;;10.54;100.00;101728.25;4984521;28;19923;-49
2022/02/07 06:20:13;;;;;;;19.60;4.22;;;;;;;10.51;100.00;101738.44;4980888;28;20129;-47
2022/02/07 06:22:39;;;;;;;;;;;;;;;10.47;100.00;101744.16;4993675;28;20120;-49
2022/02/07 06:25:05;;;;;;;23.30;4.03;;;;;;;10.18;100.00;101748.22;4979049;28;19913;-46
2022/02/07 06:27:31;;;;;;;23.05;3.88;;;;;;;10.47;100.00;101751.31;4986514;28;20030;-46
2022/02/07 06:29:58;;;;;;;24.30;3.78;;;;;;;10.34;100.00;101757.19;4986384;28;20136;-46
2022/02/07 06:32:24;;;;;;;25.57;3.33;;;;;;;10.79;100.00;101767.44;4979300;28;20671;-48
2022/02/07 06:34:49;;;;;;;25.98;3.20;;;;;;;10.48;100.00;101769.03;5008330;28;20030;-49
2022/02/07 06:37:16;;;;;;;;;;;;;;;10.41;100.00;101762.72;4980790;28;20380;-45
2022/02/07 06:39:42;;;;;;;26.40;2.83;;;;;;;10.28;100.00;101763.22;4984911;28;20022;-46
2022/02/07 06:42:07;;;;;;;21.48;3.90;;;;;;;10.57;100.00;101770.69;4987170;28;20042;-45
2022/02/07 06:44:34;;;;;;;19.38;2.83;;;;;;;10.59;100.00;101770.50;4978235;28;20044;-46
2022/02/07 06:47:02;;;;;;;20.58;4.85;;;;;;;10.65;100.00;101779.69;4958916;28;20114;-47
2022/02/07 06:49:30;;;;;;;19.05;2.85;;;;;;;11.13;100.00;101782.34;4982218;28;20026;-46
2022/02/07 06:51:56;;;;;;;19.80;3.08;;;;;;;10.63;100.00;101790.59;4983124;28;20038;-49
2022/02/07 06:54:22;;;;;;;21.95;4.72;;;;;;;10.33;100.00;101795.63;4993926;28;20490;-46
2022/02/07 06:56:49;;;;;;;26.15;4.55;;;;;;;10.55;100.00;101796.78;4977930;28;20458;-48
2022/02/07 06:59:17;;;;;;;28.60;4.00;;;;;;;10.36;100.00;101797.13;4988459;28;20034;-52
2022/02/07 07:01:46;;;;;;;18.55;2.90;;;;;;;10.41;100.00;101792.13;4983705;28;20030;-48
2022/02/07 07:04:12;;;;;;;25.15;3.25;;;;;;;10.42;100.00;101789.31;4980733;28;20094;-48
2022/02/07 07:06:39;;;;;;;47.30;5.88;;;;;;;10.14;100.00;101803.00;4992345;28;20403;-47
2022/02/07 07:09:09;;;;;;;25.42;3.25;;;;;;;10.41;100.00;101800.16;4997760;28;20036;-46
2022/02/07 07:11:35;;;;;;;27.58;3.88;;;;;;;10.69;100.00;101813.13;5013446;28;20037;-45
2022/02/07 07:14:28;;;;;;;23.63;4.45;;;;;;;10.56;100.00;101827.88;5013346;28;20037;-50
2022/02/07 07:16:55;;;;;;;21.00;3.08;;;;;;;10.37;100.00;101841.59;5012681;28;20054;-47
2022/02/07 07:19:29;;;;;;;26.58;4.53;;;;;;;10.16;100.00;101850.97;5017496;28;20033;-48
2022/02/07 07:21:54;;;;;;;23.65;3.35;;;;;;;9.79;100.00;101874.50;5024253;28;20453;-50
2022/02/07 07:24:20;;;;;;;27.42;3.17;;;;;;;9.65;100.00;101875.13;5011806;28;20030;-46
2022/02/07 07:26:46;;;;;;;31.08;5.13;;;;;;;9.67;100.00;101867.78;5000679;28;20112;-45
2022/02/07 07:29:21;;;;;;;27.58;3.42;;;;;;;9.69;100.00;101881.84;5013809;28;20049;-49
2022/02/07 07:31:54;;;;;;;24.85;4.20;;;;;;;9.85;100.00;101903.22;5017209;28;20107;-46
2022/02/07 07:34:23;;;;;;;35.15;4.30;;;;;;;9.38;100.00;101909.09;5002490;28;20564;-44
2022/02/07 07:36:51;;;;;;;31.27;4.60;;;;;;;9.81;100.00;101933.94;5013198;28;20068;-51
2022/02/07 07:39:18;;;;;;;35.07;5.10;;;;;;;9.57;100.00;101938.22;5003268;28;20183;-45
2022/02/07 07:41:46;;;;;;;23.80;3.25;;;;;;;9.98;100.00;101955.34;5007224;28;20298;-47
2022/02/07 07:44:24;;;;;;;26.15;3.88;;;;;;;9.97;100.00;101953.69;5011039;28;20037;-47
2022/02/07 07:47:10;;;;;;;38.50;5.20;;;;;;;9.90;100.00;101959.66;4981337;28;20084;-47
2022/02/07 07:50:07;;;;;;;25.17;4.38;;;;;;;10.18;100.00;101967.41;5024918;28;20049;-45
2022/02/07 08:03:25;;;;;;;23.42;3.55;;;;;;;10.66;100.00;102006.09;4989547;28;20037;-52
2022/02/07 08:06:06;;;;;;;24.23;3.83;;;;;;;10.72;100.00;102008.06;5025473;28;20129;-45
2022/02/07 08:08:44;;;;;;;29.00;3.70;;;;;;;10.93;100.00;102018.28;4996897;28;20033;-47
2022/02/07 08:11:12;;;;;;;17.80;3.30;;;;;;;10.60;100.00;102028.97;4962049;28;20479;-46
2022/02/07 08:13:44;;;;;;;28.13;3.40;;;;;;;10.46;100.00;102017.94;4986092;28;20458;-48
2022/02/07 08:16:25;;;;;;;26.38;3.00;;;;;;;10.76;100.00;102031.66;4996335;28;20030;-47
2022/02/07 08:18:52;;;;;;;22.43;3.20;;;;;;;11.17;100.00;102036.13;5014052;28;20422;-48
2022/02/07 08:21:17;;;;;;;32.60;3.75;;;;;;;11.27;100.00;102035.13;5014264;28;20030;-49
2022/02/07 08:23:43;;;;;;;28.30;4.27;;;;;;;11.14;100.00;102036.47;5013983;28;20033;-48
2022/02/07 08:26:10;;;;;;;21.02;2.72;;;;;;;11.18;100.00;102031.63;5014015;28;20038;-46
2022/02/07 08:28:36;;;;;;;24.95;5.53;;;;;;;11.75;100.00;102027.94;5013998;28;20041;-48
2022/02/07 08:31:01;;;;;;;40.25;3.85;;;;;;;11.28;100.00;102024.25;5013266;28;20044;-49
2022/02/07 08:33:27;;;;;;;28.63;3.40;;;;;;;11.80;100.00;102032.81;5013865;28;20125;-45
2022/02/07 08:35:53;;;;;;;28.33;3.63;;;;;;;12.08;100.00;102044.91;5013956;28;20042;-49
2022/02/07 08:38:19;;;;;;;26.07;3.50;;;;;;;11.80;100.00;102048.88;5013514;28;20037;-51
2022/02/07 08:40:49;;;;;;;23.98;3.42;;;;;;;11.86;100.00;102050.00;5013476;28;20124;-47
2022/02/07 08:43:15;;;;;;;25.45;4.68;;;;;;;11.64;100.00;102062.31;5013454;28;20064;-45
2022/02/07 08:45:41;;;;;;;34.90;3.88;;;;;;;12.17;100.00;102076.06;5013325;28;20037;-51
2022/02/07 08:48:07;;;;;;;37.63;4.25;;;;;;;12.40;100.00;102081.44;4996147;28;20064;-47
2022/02/07 08:50:34;;;;;;;35.67;4.03;;;;;;;12.65;100.00;102075.91;5013492;28;20046;-46
2022/02/07 08:53:01;;;;;;;29.08;4.38;;;;;;;13.12;100.00;102075.88;4997150;28;20148;-45
2022/02/07 08:55:34;;;;;;;26.83;3.72;;;;;;;13.64;96.05;102084.94;5013436;28;20038;-47
2022/02/07 08:58:05;;;;;;;22.93;4.23;;;;;;;13.97;91.90;102089.94;5013264;28;20042;-46
2022/02/07 09:03:24;;;;;;;32.40;5.10;;;;;;;14.46;90.64;102107.28;4983662;28;20271;-45
2022/02/07 09:08:27;;;;;;;20.77;4.10;;;;;;;15.48;75.97;102126.03;5013068;28;20366;-47
2022/02/07 09:10:53;;;;;;;42.60;4.47;;;;;;;15.28;74.53;102122.34;5012903;28;20279;-46
2022/02/07 09:13:19;;;;;;;20.83;3.33;;;;;;;15.43;70.34;102141.97;5003991;28;20268;-50
2022/02/07 09:16:46;;;;;;;26.10;4.53;;;;;;;15.84;74.84;102148.44;5002207;28;20117;-47
2022/02/07 09:18:41;;;;;;;27.97;3.73;;;;;;;16.47;69.22;102152.06;4995600;28;20287;-51
2022/02/07 09:21:08;;;;;;;29.50;3.57;;;;;;;17.70;62.39;102162.78;5012719;28;20279;-46
2022/02/07 09:23:35;;;;;;;20.17;4.57;;;;;;;17.96;56.78;102169.19;5012975;28;20275;-49
2022/02/07 09:26:01;;;;;;;20.77;3.53;;;;;;;17.91;58.95;102173.34;5012989;28;20307;-49
2022/02/07 09:28:27;;;;;;;25.93;4.00;;;;;;;17.40;56.04;102171.34;5012861;28;20358;-50
2022/02/07 09:30:53;;;;;;;24.07;3.60;;;;;;;17.79;56.20;102172.34;5010729;28;20574;-46
2022/02/07 09:33:21;;;;;;;24.67;5.25;;;;;;;18.24;54.94;102181.63;4993743;28;20363;-53
2022/02/07 09:35:49;;;;;;;17.30;3.53;;;;;;;17.47;56.66;102188.41;4993828;28;20378;-47
2022/02/07 09:38:16;;;;;;;26.93;4.43;;;;;;;17.59;54.04;102192.16;4993315;28;20342;-50
2022/02/07 09:40:48;;;;;;;23.00;3.83;;;;;;;17.94;56.62;102199.16;4993390;28;20283;-47
2022/02/07 09:43:14;;;;;;;20.27;4.17;;;;;;;18.25;56.28;102204.94;4996947;28;20271;-51
2022/02/07 09:45:41;;;;;;;32.22;4.97;;;;;;;18.36;54.29;102206.97;5012453;28;20641;-48
2022/02/07 09:48:11;;;;;;;17.17;3.40;;;;;;;19.16;52.75;102219.28;5012614;28;20053;-44
2022/02/07 09:50:38;;;;;;;19.60;3.83;;;;;;;19.50;51.27;102221.75;4997220;28;20280;-45
2022/02/07 09:53:05;;;;;;;20.10;4.50;;;;;;;20.03;49.21;102241.31;4995589;28;20041;-45
2022/02/07 09:55:31;;;;;;;23.37;4.00;;;;;;;18.35;51.20;102237.81;5012296;28;20065;-49
2022/02/07 09:57:56;;;;;;;23.30;3.90;;;;;;;19.24;52.42;102248.03;5012469;28;20045;-52
2022/02/07 10:00:30;;;;;;;22.33;3.37;;;;;;;19.54;48.67;102255.50;5012086;28;20038;-49
2022/02/07 10:03:23;;;;;;;22.43;3.93;;;;;;;20.18;46.98;102266.22;4991571;28;20034;-52
2022/02/07 10:05:53;;;;;;;27.63;4.30;;;;;;;20.93;45.09;102268.88;5011910;28;20058;-49
2022/02/07 10:19:05;;;;;;;16.63;3.27;;;;;;;19.82;48.48;102288.69;5011524;28;20038;-55
2022/02/07 10:34:33;;;;;;;24.80;4.17;;;;;;;17.72;53.47;102293.25;5011063;28;20040;-51
2022/02/07 10:36:13;;;;;;;29.03;4.53;;;;;;;18.25;50.61;102315.97;4982822;28;20272;-52
2022/02/07 10:42:33;;;;;;;24.00;4.80;;;;;;;17.11;61.36;102324.78;4981875;28;20763;-47
2022/02/07 10:47:13;;;;;;;20.33;3.27;;;;;;;16.15;67.22;102328.00;5011225;28;20052;-46
2022/02/07 10:49:58;;;;;;;21.27;4.43;;;;;;;16.44;64.78;102325.28;5003857;28;20629;-51
2022/02/07 10:52:23;;;;;;;23.40;3.80;;;;;;;16.00;68.96;102324.56;5004928;28;20280;-48
2022/02/07 10:54:50;;;;;;;20.37;3.87;;;;;;;17.54;54.94;102329.91;5014887;28;20298;-48
2022/02/07 10:57:15;;;;;;;26.52;3.65;;;;;;;17.45;54.54;102333.81;5015219;28;20033;-45
2022/02/07 10:59:41;;;;;;;21.52;3.33;;;;;;;18.04;54.50;102345.75;5015421;28;20068;-49
2022/02/07 11:02:40;;;;;;;18.92;4.25;;;;;;;19.39;53.32;102349.97;5014714;28;20107;-48
2022/02/07 11:05:00;;;;;;;15.80;2.60;;;;;;;20.53;45.67;102349.00;5015430;28;20506;-46
2022/02/07 11:07:31;;;;;;;22.13;4.47;;;;;;;21.37;42.20;102342.13;5028556;28;20026;-53
2022/02/07 11:15:27;;;;;;;20.53;3.13;;;;;;;21.99;38.56;102359.22;5029774;28;20029;-50
2022/02/07 11:18:04;;;;;;;11.93;2.40;;;;;;;21.34;40.75;102351.59;5024338;28;20136;-49
2022/02/07 11:20:43;;;;;;;18.47;3.07;;;;;;;19.74;43.11;102349.50;5002821;28;20033;-45
2022/02/07 11:23:19;;;;;;;25.37;3.47;;;;;;;18.67;44.73;102357.09;5017497;28;20334;-50
2022/02/07 11:28:22;;;;;;;16.27;2.73;;;;;;;20.00;43.82;102355.78;5026662;28;20041;-49
2022/02/07 11:30:59;;;;;;;19.97;3.13;;;;;;;19.62;42.76;102366.50;5017945;28;20165;-48
2022/02/07 11:33:49;;;;;;;19.33;3.70;;;;;;;17.60;47.53;102361.53;5020057;28;20041;-48
2022/02/07 11:36:23;;;;;;;23.13;3.17;;;;;;;18.96;46.25;102371.19;5022081;28;20498;-51
2022/02/07 11:38:57;;;;;;;18.57;3.40;;;;;;;17.79;49.55;102380.69;5030307;28;20466;-51
2022/02/07 11:41:22;;;;;;;10.53;2.93;;;;;;;18.02;50.64;102366.78;5014612;28;20457;-49
2022/02/07 11:43:48;;;;;;;17.73;3.07;;;;;;;20.51;42.96;102369.31;5023120;28;20270;-48
2022/02/07 11:46:13;;;;;;;15.43;2.70;;;;;;;22.03;39.18;102360.38;5022370;28;20038;-53
2022/02/07 11:48:50;;;;;;;13.07;3.43;;;;;;;20.94;40.88;102364.91;5030070;28;20270;-47
2022/02/07 11:51:20;;;;;;;14.20;2.23;;;;;;;20.09;41.16;102369.94;5005300;28;20033;-50
2022/02/07 11:53:59;;;;;;;16.20;2.30;;;;;;;18.31;44.02;102363.84;5016839;28;20045;-47
2022/02/07 11:59:16;;;;;;;15.43;2.43;;;;;;;16.92;52.50;102365.84;5024475;28;20041;-45
2022/02/07 12:01:58;;;;;;;17.30;4.17;;;;;;;17.59;50.90;102367.97;5026498;28;20121;-46
2022/02/07 12:04:28;;;;;;;17.23;2.73;;;;;;;18.08;49.93;102362.41;5026642;28;20306;-53
2022/02/07 12:07:09;;;;;;;16.90;3.70;;;;;;;17.47;49.42;102377.72;5011217;28;20299;-47
2022/02/07 12:09:35;;;;;;;14.87;2.60;;;;;;;18.41;44.96;102361.53;5020500;28;20278;-50
2022/02/07 12:12:01;;;;;;;16.23;2.43;;;;;;;18.93;42.41;102363.50;5023574;28;20357;-45
2022/02/07 12:14:35;;;;;;;15.03;2.73;;;;;;;20.51;42.53;102377.47;5027551;28;20750;-50
2022/02/07 12:17:01;;;;;;;15.23;3.20;;;;;;;20.53;37.95;102381.63;5016668;28;20041;-46
2022/02/07 12:19:40;;;;;;;11.52;3.38;;;;;;;20.95;36.28;102383.69;5028441;28;20037;-50
2022/02/07 12:22:18;;;;;;;15.53;3.30;;;;;;;21.06;38.09;102377.50;5024336;28;20188;-46
2022/02/07 12:24:56;;;;;;;12.97;2.30;;;;;;;21.78;35.86;102388.66;5018569;28;20026;-51
2022/02/07 12:27:22;;;;;;;11.73;2.43;;;;;;;20.02;38.17;102380.84;4998686;28;20081;-52
2022/02/07 12:30:06;;;;;;;12.18;2.08;;;;;;;18.31;39.86;102382.81;5021805;28;20057;-47
2022/02/07 12:32:32;;;;;;;17.40;2.83;;;;;;;18.43;42.76;102383.00;5019398;28;20022;-46
2022/02/07 12:34:58;;;;;;;11.57;2.40;;;;;;;19.05;38.83;102382.66;5029549;28;20082;-50
2022/02/07 12:37:23;;;;;;;11.77;2.53;;;;;;;20.30;37.56;102396.69;5017681;28;20033;-47
2022/02/07 12:39:50;;;;;;;10.68;2.13;;;;;;;20.65;38.01;102400.72;5024865;28;20029;-46
2022/02/07 12:42:16;;;;;;;17.95;2.50;;;;;;;20.85;35.98;102405.97;5025464;28;20038;-50
2022/02/07 12:44:42;;;;;;;11.40;2.20;;;;;;;21.66;35.12;102412.28;5017553;28;20037;-48
2022/02/07 12:47:12;;;;;;;17.95;2.53;;;;;;;22.47;34.61;102401.75;5012987;28;20137;-48
2022/02/07 12:49:38;;;;;;;11.30;2.20;;;;;;;20.92;34.47;102411.34;4999060;28;20259;-49
2022/02/07 12:52:03;;;;;;;8.98;1.92;;;;;;;20.81;36.20;102409.38;5012464;28;20156;-52
2022/02/07 12:54:29;;;;;;;7.43;2.65;;;;;;;22.43;33.78;102411.47;5026950;28;20042;-54
2022/02/07 12:57:01;;;;;;;11.45;2.53;;;;;;;22.77;32.92;102425.31;5016084;28;20120;-51
2022/02/07 12:59:27;;;;;;;10.23;2.90;;;;;;;21.62;33.35;102418.16;5027648;28;20145;-50
2022/02/07 13:01:53;;;;;;;19.48;4.70;;;;;;;22.85;32.82;102415.94;5018725;28;20037;-52
2022/02/07 13:04:21;;;;;;;10.40;1.70;;;;;;;21.27;33.30;102428.91;5010118;28;20514;-54
2022/02/07 13:06:51;;;;;;;7.60;2.30;;;;;;;22.08;32.87;102431.31;5012072;28;20565;-51
2022/02/07 13:09:31;;;;;;;11.03;2.50;;;;;;;21.53;33.12;102425.00;5012296;28;20026;-49
2022/02/07 13:12:12;;;;;;;11.13;2.33;;;;;;;20.09;35.61;102422.38;5006609;28;20030;-53
2022/02/07 13:14:47;;;;;;;11.03;2.27;;;;;;;21.15;34.36;102442.44;5012039;28;20034;-46
2022/02/07 13:17:14;;;;;;;9.60;2.43;;;;;;;21.30;36.04;102433.88;5027633;28;20034;-49
2022/02/07 13:19:42;;;;;;;14.93;3.50;;;;;;;21.12;35.05;102432.03;5019777;28;20033;-52
2022/02/07 13:22:08;;;;;;;20.63;5.73;;;;;;;22.65;33.10;102438.16;5021001;28;20045;-49
2022/02/07 13:24:36;;;;;;;29.70;7.57;;;;;;;22.23;33.28;102457.31;5026875;28;20065;-48
2022/02/07 13:27:05;;;;;;;13.47;2.70;;;;;;;20.52;34.67;102455.22;5014172;28;20034;-50
2022/02/07 13:29:41;;;;;;;10.10;2.80;;;;;;;19.24;37.13;102456.84;5018062;28;20474;-47
2022/02/07 13:32:07;;;;;;;11.43;2.22;;;;;;;18.04;39.15;102459.44;5021832;28;20038;-47
2022/02/07 13:34:36;;;;;;;10.02;2.47;;;;;;;17.28;40.39;102465.84;5026460;28;20045;-46
2022/02/07 13:37:17;;;;;;;12.53;2.60;;;;;;;18.07;44.02;102450.09;5014787;28;20040;-45
2022/02/07 13:39:48;;;;;;;10.03;2.00;;;;;;;18.60;39.36;102456.53;5032064;28;20758;-49
2022/02/07 13:42:15;;;;;;;11.23;2.97;;;;;;;20.62;36.48;102450.09;5020359;28;20282;-46
2022/02/07 13:44:42;;;;;;;11.18;2.47;;;;;;;22.48;36.02;102466.13;5027134;28;20289;-46
2022/02/07 13:47:07;;;;;;;15.27;5.00;;;;;;;19.97;36.08;102467.56;5012287;28;20149;-46
2022/02/07 13:49:33;;;;;;;15.02;4.32;;;;;;;20.90;35.81;102457.81;5017778;28;20168;-49